sensor_id;sensor_type;location;lat;lon;timestamp;P1;durP1;ratioP1;P2;durP2;ratioP2
2760;SDS011;15420;48.636;9.798;2022-09-28T00:03:34;1.17;;;1.07;;
2760;SDS011;15420;48.636;9.798;2022-09-28T00:06:01;1.70;;;1.00;;
2760;SDS011;15420;48.636;9.798;2022-09-28T00:08:29;1.20;;;1.10;;
2760;SDS011;15420;48.636;9.798;2022-09-28T00:10:55;0.80;;;0.80;;
2760;SDS011;15420;48.636;9.798;2022-09-28T00:13:22;1.00;;;0.90;;
2760;SDS011;15420;48.636;9.798;2022-09-28T00:16:02;2.20;;;0.90;;
2760;SDS011;15420;48.636;9.798;2022-09-28T00:18:30;1.20;;;1.03;;
2760;SDS011;15420;48.636;9.798;2022-09-28T00:21:03;1.07;;;0.90;;
2760;SDS011;15420;48.636;9.798;2022-09-28T00:23:34;1.20;;;1.03;;
2760;SDS011;15420;48.636;9.798;2022-09-28T00:26:32;0.80;;;0.80;;
2760;SDS011;15420;48.636;9.798;2022-09-28T00:29:00;1.50;;;0.90;;
2760;SDS011;15420;48.636;9.798;2022-09-28T00:31:28;1.00;;;0.87;;
2760;SDS011;15420;48.636;9.798;2022-09-28T00:33:56;1.40;;;0.80;;
2760;SDS011;15420;48.636;9.798;2022-09-28T00:36:25;0.80;;;0.80;;
2760;SDS011;15420;48.636;9.798;2022-09-28T00:38:55;1.07;;;0.97;;
2760;SDS011;15420;48.636;9.798;2022-09-28T00:41:23;0.90;;;0.90;;
2760;SDS011;15420;48.636;9.798;2022-09-28T00:43:50;1.03;;;0.83;;
2760;SDS011;15420;48.636;9.798;2022-09-28T00:48:53;1.33;;;0.90;;
2760;SDS011;15420;48.636;9.798;2022-09-28T00:51:31;1.20;;;1.10;;
2760;SDS011;15420;48.636;9.798;2022-09-28T00:54:02;0.90;;;0.83;;
2760;SDS011;15420;48.636;9.798;2022-09-28T00:56:35;1.13;;;1.00;;
2760;SDS011;15420;48.636;9.798;2022-09-28T00:59:11;1.07;;;0.93;;
2760;SDS011;15420;48.636;9.798;2022-09-28T01:01:38;1.20;;;1.00;;
2760;SDS011;15420;48.636;9.798;2022-09-28T01:04:10;1.33;;;1.20;;
2760;SDS011;15420;48.636;9.798;2022-09-28T01:06:36;1.53;;;1.43;;
2760;SDS011;15420;48.636;9.798;2022-09-28T01:09:04;0.77;;;0.77;;
2760;SDS011;15420;48.636;9.798;2022-09-28T01:11:34;1.20;;;1.00;;
2760;SDS011;15420;48.636;9.798;2022-09-28T01:14:06;1.03;;;0.80;;
2760;SDS011;15420;48.636;9.798;2022-09-28T01:16:41;0.97;;;0.90;;
2760;SDS011;15420;48.636;9.798;2022-09-28T01:23:15;0.90;;;0.90;;
2760;SDS011;15420;48.636;9.798;2022-09-28T01:29:03;1.00;;;0.90;;
2760;SDS011;15420;48.636;9.798;2022-09-28T01:31:57;0.87;;;0.87;;
2760;SDS011;15420;48.636;9.798;2022-09-28T01:34:51;0.90;;;0.90;;
2760;SDS011;15420;48.636;9.798;2022-09-28T01:37:28;1.30;;;0.97;;
2760;SDS011;15420;48.636;9.798;2022-09-28T01:40:16;0.70;;;0.70;;
2760;SDS011;15420;48.636;9.798;2022-09-28T01:42:48;2.00;;;0.90;;
2760;SDS011;15420;48.636;9.798;2022-09-28T01:45:21;0.93;;;0.80;;
2760;SDS011;15420;48.636;9.798;2022-09-28T01:47:55;0.60;;;0.60;;
2760;SDS011;15420;48.636;9.798;2022-09-28T01:50:28;0.80;;;0.60;;
2760;SDS011;15420;48.636;9.798;2022-09-28T01:55:54;2.40;;;0.80;;
2760;SDS011;15420;48.636;9.798;2022-09-28T02:01:02;1.33;;;0.80;;
2760;SDS011;15420;48.636;9.798;2022-09-28T02:04:38;1.87;;;0.70;;
2760;SDS011;15420;48.636;9.798;2022-09-28T02:06:55;0.90;;;0.80;;
2760;SDS011;15420;48.636;9.798;2022-09-28T02:09:24;1.33;;;0.70;;
2760;SDS011;15420;48.636;9.798;2022-09-28T02:12:00;1.33;;;0.70;;
2760;SDS011;15420;48.636;9.798;2022-09-28T02:14:33;0.70;;;0.60;;
2760;SDS011;15420;48.636;9.798;2022-09-28T02:17:04;1.57;;;0.83;;
2760;SDS011;15420;48.636;9.798;2022-09-28T02:19:31;0.83;;;0.83;;
2760;SDS011;15420;48.636;9.798;2022-09-28T02:27:28;1.63;;;1.50;;
2760;SDS011;15420;48.636;9.798;2022-09-28T02:29:57;0.60;;;0.60;;
2760;SDS011;15420;48.636;9.798;2022-09-28T02:32:23;3.13;;;0.90;;
2760;SDS011;15420;48.636;9.798;2022-09-28T02:34:53;1.00;;;0.80;;
2760;SDS011;15420;48.636;9.798;2022-09-28T02:37:19;0.90;;;0.90;;
2760;SDS011;15420;48.636;9.798;2022-09-28T02:39:45;1.97;;;0.70;;
2760;SDS011;15420;48.636;9.798;2022-09-28T02:47:37;3.10;;;1.00;;
2760;SDS011;15420;48.636;9.798;2022-09-28T02:55:51;0.80;;;0.73;;
2760;SDS011;15420;48.636;9.798;2022-09-28T03:07:17;1.77;;;0.70;;
2760;SDS011;15420;48.636;9.798;2022-09-28T03:10:14;1.10;;;1.00;;
2760;SDS011;15420;48.636;9.798;2022-09-28T03:12:44;2.70;;;1.17;;
2760;SDS011;15420;48.636;9.798;2022-09-28T03:17:46;1.53;;;0.70;;
2760;SDS011;15420;48.636;9.798;2022-09-28T03:20:12;1.97;;;0.90;;
2760;SDS011;15420;48.636;9.798;2022-09-28T03:22:38;2.00;;;0.90;;
2760;SDS011;15420;48.636;9.798;2022-09-28T03:25:07;0.70;;;0.70;;
2760;SDS011;15420;48.636;9.798;2022-09-28T03:27:34;0.90;;;0.60;;
2760;SDS011;15420;48.636;9.798;2022-09-28T03:30:00;2.07;;;0.90;;
2760;SDS011;15420;48.636;9.798;2022-09-28T03:32:26;1.87;;;1.30;;
2760;SDS011;15420;48.636;9.798;2022-09-28T03:34:53;1.47;;;0.80;;
2760;SDS011;15420;48.636;9.798;2022-09-28T03:37:19;1.27;;;0.90;;
2760;SDS011;15420;48.636;9.798;2022-09-28T03:39:50;0.83;;;0.83;;
2760;SDS011;15420;48.636;9.798;2022-09-28T03:42:18;1.97;;;1.00;;
2760;SDS011;15420;48.636;9.798;2022-09-28T03:44:46;0.60;;;0.60;;
2760;SDS011;15420;48.636;9.798;2022-09-28T03:47:12;1.47;;;0.70;;
2760;SDS011;15420;48.636;9.798;2022-09-28T03:49:41;0.60;;;0.60;;
2760;SDS011;15420;48.636;9.798;2022-09-28T03:52:07;0.70;;;0.70;;
2760;SDS011;15420;48.636;9.798;2022-09-28T03:54:36;0.90;;;0.80;;
2760;SDS011;15420;48.636;9.798;2022-09-28T03:57:07;1.37;;;0.70;;
2760;SDS011;15420;48.636;9.798;2022-09-28T03:59:35;0.97;;;0.77;;
2760;SDS011;15420;48.636;9.798;2022-09-28T04:02:04;1.57;;;0.80;;
2760;SDS011;15420;48.636;9.798;2022-09-28T04:04:30;1.70;;;0.67;;
2760;SDS011;15420;48.636;9.798;2022-09-28T04:06:58;1.00;;;1.00;;
2760;SDS011;15420;48.636;9.798;2022-09-28T04:09:25;1.37;;;0.90;;
2760;SDS011;15420;48.636;9.798;2022-09-28T04:11:51;1.20;;;0.70;;
2760;SDS011;15420;48.636;9.798;2022-09-28T04:14:17;1.37;;;0.60;;
2760;SDS011;15420;48.636;9.798;2022-09-28T04:16:45;0.70;;;0.70;;
2760;SDS011;15420;48.636;9.798;2022-09-28T04:19:12;0.90;;;0.60;;
2760;SDS011;15420;48.636;9.798;2022-09-28T04:21:40;0.80;;;0.70;;
2760;SDS011;15420;48.636;9.798;2022-09-28T04:24:11;1.47;;;1.00;;
2760;SDS011;15420;48.636;9.798;2022-09-28T04:26:42;2.00;;;1.10;;
2760;SDS011;15420;48.636;9.798;2022-09-28T04:29:11;2.27;;;1.07;;
2760;SDS011;15420;48.636;9.798;2022-09-28T04:31:46;0.77;;;0.70;;
2760;SDS011;15420;48.636;9.798;2022-09-28T04:34:17;1.40;;;0.73;;
2760;SDS011;15420;48.636;9.798;2022-09-28T04:36:46;0.83;;;0.83;;
2760;SDS011;15420;48.636;9.798;2022-09-28T04:39:19;0.83;;;0.83;;
2760;SDS011;15420;48.636;9.798;2022-09-28T04:41:49;0.93;;;0.60;;
2760;SDS011;15420;48.636;9.798;2022-09-28T04:44:15;0.70;;;0.70;;
2760;SDS011;15420;48.636;9.798;2022-09-28T04:46:43;0.70;;;0.70;;
2760;SDS011;15420;48.636;9.798;2022-09-28T04:49:09;0.70;;;0.70;;
2760;SDS011;15420;48.636;9.798;2022-09-28T04:51:35;0.60;;;0.60;;
2760;SDS011;15420;48.636;9.798;2022-09-28T04:54:02;0.60;;;0.60;;
2760;SDS011;15420;48.636;9.798;2022-09-28T04:56:28;1.00;;;1.00;;
2760;SDS011;15420;48.636;9.798;2022-09-28T04:58:56;0.70;;;0.70;;
2760;SDS011;15420;48.636;9.798;2022-09-28T05:01:22;0.50;;;0.50;;
2760;SDS011;15420;48.636;9.798;2022-09-28T05:03:51;0.57;;;0.57;;
2760;SDS011;15420;48.636;9.798;2022-09-28T05:06:17;0.70;;;0.70;;
2760;SDS011;15420;48.636;9.798;2022-09-28T05:08:43;1.40;;;0.70;;
2760;SDS011;15420;48.636;9.798;2022-09-28T05:11:11;3.40;;;0.90;;
2760;SDS011;15420;48.636;9.798;2022-09-28T05:13:43;1.03;;;0.77;;
2760;SDS011;15420;48.636;9.798;2022-09-28T05:16:10;1.00;;;0.70;;
2760;SDS011;15420;48.636;9.798;2022-09-28T05:18:37;0.50;;;0.50;;
2760;SDS011;15420;48.636;9.798;2022-09-28T05:21:08;1.80;;;0.80;;
2760;SDS011;15420;48.636;9.798;2022-09-28T05:23:36;0.70;;;0.70;;
2760;SDS011;15420;48.636;9.798;2022-09-28T05:26:03;1.07;;;0.87;;
2760;SDS011;15420;48.636;9.798;2022-09-28T05:28:30;1.27;;;0.80;;
2760;SDS011;15420;48.636;9.798;2022-09-28T05:31:00;1.17;;;0.80;;
2760;SDS011;15420;48.636;9.798;2022-09-28T05:33:27;1.73;;;0.90;;
2760;SDS011;15420;48.636;9.798;2022-09-28T05:35:53;1.00;;;1.00;;
2760;SDS011;15420;48.636;9.798;2022-09-28T05:38:19;2.30;;;0.70;;
2760;SDS011;15420;48.636;9.798;2022-09-28T05:40:47;1.03;;;0.63;;
2760;SDS011;15420;48.636;9.798;2022-09-28T05:43:14;1.30;;;0.80;;
2760;SDS011;15420;48.636;9.798;2022-09-28T05:45:40;0.70;;;0.70;;
2760;SDS011;15420;48.636;9.798;2022-09-28T05:48:06;0.80;;;0.77;;
2760;SDS011;15420;48.636;9.798;2022-09-28T05:50:35;1.00;;;0.60;;
2760;SDS011;15420;48.636;9.798;2022-09-28T05:53:05;1.47;;;0.77;;
2760;SDS011;15420;48.636;9.798;2022-09-28T05:55:35;1.50;;;0.73;;
2760;SDS011;15420;48.636;9.798;2022-09-28T05:58:04;0.93;;;0.93;;
2760;SDS011;15420;48.636;9.798;2022-09-28T06:00:34;1.10;;;0.80;;
2760;SDS011;15420;48.636;9.798;2022-09-28T06:03:03;1.83;;;0.97;;
2760;SDS011;15420;48.636;9.798;2022-09-28T06:05:33;1.30;;;0.70;;
2760;SDS011;15420;48.636;9.798;2022-09-28T06:08:01;0.97;;;0.70;;
2760;SDS011;15420;48.636;9.798;2022-09-28T06:10:29;1.33;;;0.73;;
2760;SDS011;15420;48.636;9.798;2022-09-28T06:12:55;0.93;;;0.80;;
2760;SDS011;15420;48.636;9.798;2022-09-28T06:15:24;1.63;;;0.70;;
2760;SDS011;15420;48.636;9.798;2022-09-28T06:17:58;0.63;;;0.63;;
2760;SDS011;15420;48.636;9.798;2022-09-28T06:20:30;1.03;;;0.60;;
2760;SDS011;15420;48.636;9.798;2022-09-28T06:22:59;1.20;;;0.80;;
2760;SDS011;15420;48.636;9.798;2022-09-28T06:25:28;1.07;;;0.87;;
2760;SDS011;15420;48.636;9.798;2022-09-28T06:27:57;1.67;;;0.67;;
2760;SDS011;15420;48.636;9.798;2022-09-28T06:30:25;1.77;;;1.00;;
2760;SDS011;15420;48.636;9.798;2022-09-28T06:32:56;0.93;;;0.80;;
2760;SDS011;15420;48.636;9.798;2022-09-28T06:35:24;1.50;;;1.40;;
2760;SDS011;15420;48.636;9.798;2022-09-28T06:37:52;1.53;;;1.40;;
2760;SDS011;15420;48.636;9.798;2022-09-28T06:40:21;2.40;;;1.40;;
2760;SDS011;15420;48.636;9.798;2022-09-28T06:42:58;2.40;;;1.43;;
2760;SDS011;15420;48.636;9.798;2022-09-28T06:45:35;1.33;;;1.23;;
2760;SDS011;15420;48.636;9.798;2022-09-28T06:48:02;5.37;;;2.47;;
2760;SDS011;15420;48.636;9.798;2022-09-28T06:50:30;6.40;;;3.50;;
2760;SDS011;15420;48.636;9.798;2022-09-28T06:53:01;36.33;;;14.60;;
2760;SDS011;15420;48.636;9.798;2022-09-28T06:55:31;33.13;;;15.23;;
2760;SDS011;15420;48.636;9.798;2022-09-28T06:58:03;17.97;;;9.83;;
2760;SDS011;15420;48.636;9.798;2022-09-28T07:00:33;17.70;;;10.03;;
2760;SDS011;15420;48.636;9.798;2022-09-28T07:03:03;22.50;;;13.80;;
2760;SDS011;15420;48.636;9.798;2022-09-28T07:05:35;13.43;;;8.67;;
2760;SDS011;15420;48.636;9.798;2022-09-28T07:08:05;6.73;;;5.20;;
2760;SDS011;15420;48.636;9.798;2022-09-28T07:10:31;3.90;;;3.50;;
2760;SDS011;15420;48.636;9.798;2022-09-28T07:12:58;4.10;;;3.70;;
2760;SDS011;15420;48.636;9.798;2022-09-28T07:15:30;3.20;;;3.00;;
2760;SDS011;15420;48.636;9.798;2022-09-28T07:17:59;6.60;;;4.57;;
2760;SDS011;15420;48.636;9.798;2022-09-28T07:20:27;6.90;;;4.87;;
2760;SDS011;15420;48.636;9.798;2022-09-28T07:22:55;4.90;;;3.13;;
2760;SDS011;15420;48.636;9.798;2022-09-28T07:25:24;2.77;;;2.57;;
2760;SDS011;15420;48.636;9.798;2022-09-28T07:27:54;2.00;;;1.87;;
2760;SDS011;15420;48.636;9.798;2022-09-28T07:30:24;3.60;;;2.20;;
2760;SDS011;15420;48.636;9.798;2022-09-28T07:32:53;1.47;;;1.37;;
2760;SDS011;15420;48.636;9.798;2022-09-28T07:35:24;2.33;;;2.13;;
2760;SDS011;15420;48.636;9.798;2022-09-28T07:37:57;1.90;;;1.47;;
2760;SDS011;15420;48.636;9.798;2022-09-28T07:40:28;1.87;;;1.53;;
2760;SDS011;15420;48.636;9.798;2022-09-28T07:43:13;3.40;;;1.60;;
2760;SDS011;15420;48.636;9.798;2022-09-28T07:45:44;1.67;;;1.57;;
2760;SDS011;15420;48.636;9.798;2022-09-28T07:48:12;2.67;;;1.40;;
2760;SDS011;15420;48.636;9.798;2022-09-28T07:50:52;1.13;;;1.13;;
2760;SDS011;15420;48.636;9.798;2022-09-28T07:53:22;3.50;;;1.60;;
2760;SDS011;15420;48.636;9.798;2022-09-28T07:55:52;1.43;;;1.33;;
2760;SDS011;15420;48.636;9.798;2022-09-28T07:58:27;1.53;;;1.43;;
2760;SDS011;15420;48.636;9.798;2022-09-28T08:00:56;1.70;;;1.60;;
2760;SDS011;15420;48.636;9.798;2022-09-28T08:03:27;3.17;;;1.67;;
2760;SDS011;15420;48.636;9.798;2022-09-28T08:06:00;2.80;;;1.70;;
2760;SDS011;15420;48.636;9.798;2022-09-28T08:08:28;3.13;;;1.80;;
2760;SDS011;15420;48.636;9.798;2022-09-28T08:10:59;2.37;;;1.60;;
2760;SDS011;15420;48.636;9.798;2022-09-28T08:13:25;6.27;;;2.17;;
2760;SDS011;15420;48.636;9.798;2022-09-28T08:15:58;1.87;;;1.70;;
2760;SDS011;15420;48.636;9.798;2022-09-28T08:18:25;1.80;;;1.70;;
2760;SDS011;15420;48.636;9.798;2022-09-28T08:20:56;2.17;;;2.00;;
2760;SDS011;15420;48.636;9.798;2022-09-28T08:23:41;2.10;;;2.00;;
2760;SDS011;15420;48.636;9.798;2022-09-28T08:26:09;1.40;;;1.30;;
2760;SDS011;15420;48.636;9.798;2022-09-28T08:28:35;2.50;;;1.93;;
2760;SDS011;15420;48.636;9.798;2022-09-28T08:31:04;2.53;;;1.90;;
2760;SDS011;15420;48.636;9.798;2022-09-28T08:33:32;3.80;;;2.90;;
2760;SDS011;15420;48.636;9.798;2022-09-28T08:36:00;3.90;;;2.70;;
2760;SDS011;15420;48.636;9.798;2022-09-28T08:38:30;2.20;;;2.00;;
2760;SDS011;15420;48.636;9.798;2022-09-28T08:46:50;1.40;;;1.30;;
2760;SDS011;15420;48.636;9.798;2022-09-28T08:49:32;4.13;;;1.73;;
2760;SDS011;15420;48.636;9.798;2022-09-28T08:52:19;1.20;;;1.10;;
2760;SDS011;15420;48.636;9.798;2022-09-28T08:54:52;0.83;;;0.83;;
2760;SDS011;15420;48.636;9.798;2022-09-28T08:58:12;1.30;;;1.20;;
2760;SDS011;15420;48.636;9.798;2022-09-28T09:03:08;1.87;;;1.27;;
2760;SDS011;15420;48.636;9.798;2022-09-28T09:08:45;1.50;;;1.13;;
2760;SDS011;15420;48.636;9.798;2022-09-28T09:11:46;2.50;;;1.70;;
2760;SDS011;15420;48.636;9.798;2022-09-28T09:14:28;2.13;;;1.33;;
2760;SDS011;15420;48.636;9.798;2022-09-28T09:22:39;1.53;;;1.43;;
2760;SDS011;15420;48.636;9.798;2022-09-28T09:30:29;1.80;;;1.50;;
2760;SDS011;15420;48.636;9.798;2022-09-28T09:47:48;3.23;;;2.77;;
2760;SDS011;15420;48.636;9.798;2022-09-28T09:50:23;2.00;;;1.80;;
2760;SDS011;15420;48.636;9.798;2022-09-28T09:55:46;2.70;;;1.43;;
2760;SDS011;15420;48.636;9.798;2022-09-28T09:58:19;1.63;;;1.40;;
2760;SDS011;15420;48.636;9.798;2022-09-28T10:01:10;1.97;;;1.80;;
2760;SDS011;15420;48.636;9.798;2022-09-28T10:03:41;2.30;;;1.30;;
2760;SDS011;15420;48.636;9.798;2022-09-28T10:06:18;2.80;;;1.97;;
2760;SDS011;15420;48.636;9.798;2022-09-28T10:08:59;2.87;;;1.60;;
2760;SDS011;15420;48.636;9.798;2022-09-28T10:11:45;3.53;;;1.80;;
2760;SDS011;15420;48.636;9.798;2022-09-28T10:14:19;2.70;;;2.50;;
2760;SDS011;15420;48.636;9.798;2022-09-28T10:16:47;4.27;;;2.23;;
2760;SDS011;15420;48.636;9.798;2022-09-28T10:19:19;2.23;;;2.03;;
2760;SDS011;15420;48.636;9.798;2022-09-28T10:21:51;2.00;;;1.77;;
2760;SDS011;15420;48.636;9.798;2022-09-28T10:24:30;3.07;;;1.97;;
2760;SDS011;15420;48.636;9.798;2022-09-28T10:27:19;2.07;;;1.90;;
2760;SDS011;15420;48.636;9.798;2022-09-28T10:29:50;1.60;;;1.50;;
2760;SDS011;15420;48.636;9.798;2022-09-28T10:32:18;3.37;;;2.10;;
2760;SDS011;15420;48.636;9.798;2022-09-28T10:34:51;2.20;;;2.00;;
2760;SDS011;15420;48.636;9.798;2022-09-28T10:37:21;2.60;;;2.23;;
2760;SDS011;15420;48.636;9.798;2022-09-28T10:42:38;2.40;;;2.30;;
2760;SDS011;15420;48.636;9.798;2022-09-28T10:47:47;2.80;;;2.10;;
2760;SDS011;15420;48.636;9.798;2022-09-28T10:50:19;6.80;;;2.10;;
2760;SDS011;15420;48.636;9.798;2022-09-28T10:52:47;2.90;;;2.10;;
2760;SDS011;15420;48.636;9.798;2022-09-28T10:57:52;2.00;;;1.90;;
2760;SDS011;15420;48.636;9.798;2022-09-28T11:00:29;3.83;;;1.97;;
2760;SDS011;15420;48.636;9.798;2022-09-28T11:02:58;2.20;;;2.00;;
2760;SDS011;15420;48.636;9.798;2022-09-28T11:05:27;2.30;;;1.97;;
2760;SDS011;15420;48.636;9.798;2022-09-28T11:07:57;3.50;;;2.60;;
2760;SDS011;15420;48.636;9.798;2022-09-28T11:10:28;2.67;;;2.47;;
2760;SDS011;15420;48.636;9.798;2022-09-28T11:12:58;4.73;;;2.40;;
2760;SDS011;15420;48.636;9.798;2022-09-28T11:15:26;3.50;;;2.30;;
2760;SDS011;15420;48.636;9.798;2022-09-28T11:17:55;3.17;;;2.30;;
2760;SDS011;15420;48.636;9.798;2022-09-28T11:20:34;3.23;;;2.00;;
2760;SDS011;15420;48.636;9.798;2022-09-28T11:23:21;2.33;;;2.10;;
2760;SDS011;15420;48.636;9.798;2022-09-28T11:26:02;4.90;;;3.17;;
2760;SDS011;15420;48.636;9.798;2022-09-28T11:28:37;3.23;;;2.03;;
2760;SDS011;15420;48.636;9.798;2022-09-28T11:31:07;6.53;;;2.17;;
2760;SDS011;15420;48.636;9.798;2022-09-28T11:33:37;3.30;;;1.90;;
2760;SDS011;15420;48.636;9.798;2022-09-28T11:36:13;3.97;;;2.10;;
2760;SDS011;15420;48.636;9.798;2022-09-28T11:42:22;2.27;;;2.07;;
2760;SDS011;15420;48.636;9.798;2022-09-28T11:47:59;3.90;;;2.70;;
2760;SDS011;15420;48.636;9.798;2022-09-28T11:55:42;2.10;;;1.90;;
2760;SDS011;15420;48.636;9.798;2022-09-28T12:00:49;2.20;;;1.90;;
2760;SDS011;15420;48.636;9.798;2022-09-28T12:03:22;2.23;;;1.40;;
2760;SDS011;15420;48.636;9.798;2022-09-28T12:06:02;2.83;;;1.50;;
2760;SDS011;15420;48.636;9.798;2022-09-28T12:08:33;2.27;;;1.70;;
2760;SDS011;15420;48.636;9.798;2022-09-28T12:13:48;2.13;;;1.57;;
2760;SDS011;15420;48.636;9.798;2022-09-28T12:16:22;1.67;;;1.57;;
2760;SDS011;15420;48.636;9.798;2022-09-28T12:19:04;1.60;;;1.50;;
2760;SDS011;15420;48.636;9.798;2022-09-28T12:24:18;2.47;;;1.80;;
2760;SDS011;15420;48.636;9.798;2022-09-28T12:35:11;3.90;;;1.60;;
2760;SDS011;15420;48.636;9.798;2022-09-28T12:43:47;1.60;;;1.50;;
2760;SDS011;15420;48.636;9.798;2022-09-28T12:51:48;4.67;;;1.67;;
2760;SDS011;15420;48.636;9.798;2022-09-28T13:02:47;2.17;;;1.93;;
2760;SDS011;15420;48.636;9.798;2022-09-28T13:07:59;2.03;;;1.30;;
2760;SDS011;15420;48.636;9.798;2022-09-28T13:13:21;2.30;;;1.83;;
2760;SDS011;15420;48.636;9.798;2022-09-28T13:23:58;2.80;;;1.60;;
2760;SDS011;15420;48.636;9.798;2022-09-28T13:26:30;2.40;;;1.53;;
2760;SDS011;15420;48.636;9.798;2022-09-28T13:29:03;2.10;;;1.60;;
2760;SDS011;15420;48.636;9.798;2022-09-28T13:32:00;1.40;;;1.30;;
2760;SDS011;15420;48.636;9.798;2022-09-28T13:34:28;3.20;;;1.80;;
2760;SDS011;15420;48.636;9.798;2022-09-28T13:37:16;1.87;;;1.77;;
2760;SDS011;15420;48.636;9.798;2022-09-28T13:39:52;2.53;;;1.77;;
2760;SDS011;15420;48.636;9.798;2022-09-28T13:53:10;1.40;;;1.23;;
2760;SDS011;15420;48.636;9.798;2022-09-28T13:58:43;2.20;;;1.33;;
2760;SDS011;15420;48.636;9.798;2022-09-28T14:01:19;4.10;;;1.70;;
2760;SDS011;15420;48.636;9.798;2022-09-28T14:04:50;3.40;;;2.13;;
2760;SDS011;15420;48.636;9.798;2022-09-28T14:12:27;1.80;;;1.20;;
2760;SDS011;15420;48.636;9.798;2022-09-28T14:21:02;2.23;;;1.43;;
2760;SDS011;15420;48.636;9.798;2022-09-28T14:29:33;1.13;;;1.03;;
2760;SDS011;15420;48.636;9.798;2022-09-28T14:32:19;2.10;;;1.20;;
2760;SDS011;15420;48.636;9.798;2022-09-28T14:34:55;2.23;;;2.13;;
2760;SDS011;15420;48.636;9.798;2022-09-28T14:37:34;4.10;;;3.20;;
2760;SDS011;15420;48.636;9.798;2022-09-28T14:54:01;3.40;;;2.10;;
2760;SDS011;15420;48.636;9.798;2022-09-28T14:56:39;2.30;;;1.73;;
2760;SDS011;15420;48.636;9.798;2022-09-28T14:59:21;1.67;;;1.57;;
2760;SDS011;15420;48.636;9.798;2022-09-28T15:01:58;3.37;;;1.70;;
2760;SDS011;15420;48.636;9.798;2022-09-28T15:04:36;7.10;;;2.20;;
2760;SDS011;15420;48.636;9.798;2022-09-28T15:07:17;5.97;;;2.80;;
2760;SDS011;15420;48.636;9.798;2022-09-28T15:09:47;4.47;;;2.37;;
2760;SDS011;15420;48.636;9.798;2022-09-28T15:12:24;4.97;;;2.20;;
2760;SDS011;15420;48.636;9.798;2022-09-28T15:14:53;3.63;;;2.10;;
2760;SDS011;15420;48.636;9.798;2022-09-28T15:17:29;3.17;;;2.07;;
2760;SDS011;15420;48.636;9.798;2022-09-28T15:22:55;5.90;;;1.50;;
2760;SDS011;15420;48.636;9.798;2022-09-28T15:25:29;2.93;;;1.30;;
2760;SDS011;15420;48.636;9.798;2022-09-28T15:27:57;5.40;;;1.63;;
2760;SDS011;15420;48.636;9.798;2022-09-28T15:30:33;1.63;;;1.10;;
2760;SDS011;15420;48.636;9.798;2022-09-28T15:33:00;2.23;;;1.17;;
2760;SDS011;15420;48.636;9.798;2022-09-28T15:38:29;7.40;;;4.13;;
2760;SDS011;15420;48.636;9.798;2022-09-28T15:40:58;7.47;;;4.50;;
2760;SDS011;15420;48.636;9.798;2022-09-28T15:43:29;9.70;;;5.27;;
2760;SDS011;15420;48.636;9.798;2022-09-28T15:46:04;5.83;;;3.93;;
2760;SDS011;15420;48.636;9.798;2022-09-28T15:48:45;4.37;;;3.20;;
2760;SDS011;15420;48.636;9.798;2022-09-28T15:51:19;6.27;;;2.50;;
2760;SDS011;15420;48.636;9.798;2022-09-28T15:56:13;6.70;;;4.80;;
2760;SDS011;15420;48.636;9.798;2022-09-28T15:58:42;8.93;;;6.00;;
2760;SDS011;15420;48.636;9.798;2022-09-28T16:04:38;5.50;;;4.03;;
2760;SDS011;15420;48.636;9.798;2022-09-28T16:07:22;5.57;;;3.80;;
2760;SDS011;15420;48.636;9.798;2022-09-28T16:15:06;3.07;;;1.87;;
2760;SDS011;15420;48.636;9.798;2022-09-28T16:17:47;7.03;;;3.83;;
2760;SDS011;15420;48.636;9.798;2022-09-28T16:20:23;3.27;;;2.40;;
2760;SDS011;15420;48.636;9.798;2022-09-28T16:22:57;2.60;;;2.40;;
2760;SDS011;15420;48.636;9.798;2022-09-28T16:25:30;3.23;;;1.90;;
2760;SDS011;15420;48.636;9.798;2022-09-28T16:28:03;2.10;;;1.70;;
2760;SDS011;15420;48.636;9.798;2022-09-28T16:30:34;2.70;;;1.53;;
2760;SDS011;15420;48.636;9.798;2022-09-28T16:33:01;1.90;;;1.43;;
2760;SDS011;15420;48.636;9.798;2022-09-28T16:35:52;1.37;;;1.27;;
2760;SDS011;15420;48.636;9.798;2022-09-28T16:38:18;1.80;;;1.33;;
2760;SDS011;15420;48.636;9.798;2022-09-28T16:40:50;1.90;;;1.27;;
2760;SDS011;15420;48.636;9.798;2022-09-28T16:45:54;4.00;;;2.50;;
2760;SDS011;15420;48.636;9.798;2022-09-28T16:48:26;2.10;;;1.77;;
2760;SDS011;15420;48.636;9.798;2022-09-28T16:50:54;4.97;;;4.47;;
2760;SDS011;15420;48.636;9.798;2022-09-28T16:53:24;4.70;;;4.30;;
2760;SDS011;15420;48.636;9.798;2022-09-28T16:56:09;4.70;;;4.30;;
2760;SDS011;15420;48.636;9.798;2022-09-28T16:58:36;3.83;;;3.50;;
2760;SDS011;15420;48.636;9.798;2022-09-28T17:01:03;2.90;;;2.40;;
2760;SDS011;15420;48.636;9.798;2022-09-28T17:03:34;3.13;;;1.87;;
2760;SDS011;15420;48.636;9.798;2022-09-28T17:06:08;3.43;;;1.77;;
2760;SDS011;15420;48.636;9.798;2022-09-28T17:08:39;1.90;;;1.50;;
2760;SDS011;15420;48.636;9.798;2022-09-28T17:11:15;3.43;;;3.13;;
2760;SDS011;15420;48.636;9.798;2022-09-28T17:13:49;9.13;;;4.67;;
2760;SDS011;15420;48.636;9.798;2022-09-28T17:16:19;24.00;;;7.37;;
2760;SDS011;15420;48.636;9.798;2022-09-28T17:18:46;19.10;;;9.57;;
2760;SDS011;15420;48.636;9.798;2022-09-28T17:21:17;19.20;;;6.40;;
2760;SDS011;15420;48.636;9.798;2022-09-28T17:23:45;13.30;;;6.00;;
2760;SDS011;15420;48.636;9.798;2022-09-28T17:28:44;7.87;;;4.90;;
2760;SDS011;15420;48.636;9.798;2022-09-28T17:31:14;6.17;;;4.30;;
2760;SDS011;15420;48.636;9.798;2022-09-28T17:33:41;10.03;;;7.23;;
2760;SDS011;15420;48.636;9.798;2022-09-28T17:36:14;11.00;;;8.10;;
2760;SDS011;15420;48.636;9.798;2022-09-28T17:38:41;9.73;;;6.00;;
2760;SDS011;15420;48.636;9.798;2022-09-28T17:41:12;7.07;;;4.90;;
2760;SDS011;15420;48.636;9.798;2022-09-28T17:43:40;6.40;;;4.13;;
2760;SDS011;15420;48.636;9.798;2022-09-28T17:46:07;4.97;;;3.80;;
2760;SDS011;15420;48.636;9.798;2022-09-28T17:48:51;6.70;;;4.03;;
2760;SDS011;15420;48.636;9.798;2022-09-28T17:51:20;8.20;;;5.17;;
2760;SDS011;15420;48.636;9.798;2022-09-28T17:53:49;5.57;;;4.03;;
2760;SDS011;15420;48.636;9.798;2022-09-28T17:56:20;5.23;;;4.37;;
2760;SDS011;15420;48.636;9.798;2022-09-28T17:58:49;6.33;;;4.20;;
2760;SDS011;15420;48.636;9.798;2022-09-28T18:01:16;5.60;;;4.10;;
2760;SDS011;15420;48.636;9.798;2022-09-28T18:03:43;6.23;;;3.77;;
2760;SDS011;15420;48.636;9.798;2022-09-28T18:06:13;4.33;;;3.50;;
2760;SDS011;15420;48.636;9.798;2022-09-28T18:08:48;5.37;;;4.87;;
2760;SDS011;15420;48.636;9.798;2022-09-28T18:11:14;6.23;;;5.00;;
2760;SDS011;15420;48.636;9.798;2022-09-28T18:13:41;7.90;;;4.63;;
2760;SDS011;15420;48.636;9.798;2022-09-28T18:16:10;5.67;;;4.13;;
2760;SDS011;15420;48.636;9.798;2022-09-28T18:18:36;5.17;;;3.60;;
2760;SDS011;15420;48.636;9.798;2022-09-28T18:21:04;8.00;;;4.33;;
2760;SDS011;15420;48.636;9.798;2022-09-28T18:23:34;5.90;;;4.43;;
2760;SDS011;15420;48.636;9.798;2022-09-28T18:26:02;6.90;;;5.07;;
2760;SDS011;15420;48.636;9.798;2022-09-28T18:28:29;7.77;;;5.03;;
2760;SDS011;15420;48.636;9.798;2022-09-28T18:30:57;17.43;;;9.60;;
2760;SDS011;15420;48.636;9.798;2022-09-28T18:33:23;13.30;;;7.40;;
2760;SDS011;15420;48.636;9.798;2022-09-28T18:35:51;8.43;;;5.70;;
2760;SDS011;15420;48.636;9.798;2022-09-28T18:38:18;6.13;;;4.73;;
2760;SDS011;15420;48.636;9.798;2022-09-28T18:40:47;8.60;;;5.50;;
2760;SDS011;15420;48.636;9.798;2022-09-28T18:43:13;7.77;;;5.20;;
2760;SDS011;15420;48.636;9.798;2022-09-28T18:45:43;6.57;;;5.40;;
2760;SDS011;15420;48.636;9.798;2022-09-28T18:48:09;10.27;;;6.10;;
2760;SDS011;15420;48.636;9.798;2022-09-28T18:50:35;6.70;;;5.20;;
2760;SDS011;15420;48.636;9.798;2022-09-28T18:53:01;5.97;;;5.03;;
2760;SDS011;15420;48.636;9.798;2022-09-28T18:55:37;7.33;;;5.10;;
2760;SDS011;15420;48.636;9.798;2022-09-28T18:58:06;8.73;;;5.67;;
2760;SDS011;15420;48.636;9.798;2022-09-28T19:00:36;6.13;;;5.37;;
2760;SDS011;15420;48.636;9.798;2022-09-28T19:03:06;7.03;;;5.77;;
2760;SDS011;15420;48.636;9.798;2022-09-28T19:05:41;6.30;;;5.13;;
2760;SDS011;15420;48.636;9.798;2022-09-28T19:08:08;7.43;;;5.00;;
2760;SDS011;15420;48.636;9.798;2022-09-28T19:10:35;7.20;;;5.53;;